UKLU/UDJ METAR and TAF weather

Enter ICAO airport designator
Station Type Date Time Source
UKLU METAR 2019/02/20 07:00 UTC NOAA

UKLU 200700Z 00000MPS 5000 BR NSC 02/01 Q1019 R10/190065 NOSIG


Station Type Date Time Source
UKLU Decoded METAR 2019/02/20 07:00 UTC NOAA

Uzhhorod, Ukraine (UKLU) 48-38-05N 022-15-53E
Feb 20, 2019 - 02:00 AM EST / 2019.02.20 0700 UTC
Wind: Calm:0
Visibility: 3 mile(s):0
Weather: mist
Temperature: 35 F (2 C)
Dew Point: 33 F (1 C)
Relative Humidity: 93%
Pressure (altimeter): 30.09 in. Hg (1019 hPa)
ob: UKLU 200700Z 00000MPS 5000 BR NSC 02/01 Q1019 R10/190065 NOSIG
cycle: 7

Station Type Date Time Source
UKLU TAF 2018/08/04 18:39 UTC NOAA

TAF TAF UKLU 041831Z 0418/0506 CNL


Example: see airport list